Česky Dansk Deutsch English Español Suomi Français Magyar Italiano Nederlands norsk Polski Português svenska Türkçe

 

Het Weer

Cambrai (Frankrijk)

10:30, 29 juni 2012 (GMT)

NWNNE
WE
SWSSE
Home            
Cambrai Lille Saint-Quentin Chievres Munte Abbeville Charleroi / Gosselies Koksijde Florennes Oostende Airport Beauvais Le Touquet Charleville Creil Fafb Gent / Industrie-Zone Reims Melsbroek Bel-Afb Bruxelles National Beauvechain Paris-Aeroport Charles De Gaulle Goetsenhoven Antwerpen / Deurne Paris / Le Bourget

Om een weerknop op uw website of weblog te plaatsen, copieer onderstaande code en plak die in uw pagina. In het eerste vakje staat HTML-code, in het tweede vakje UBB-code.


Add to Google

Details

Wind speed:3 bf, 9 kn, 4.6 m/s, 10.4 miles/h, 16.7 km/h
Wind direction:SW, 220°
Het Weer:moderate
moderate
moderate
Temperature:18°C, 64°F
Dew-point:14°C, 57°F
Atmospheric pressure:1009 hPa, 756.8 mmHg, 29.80 inHg, 0.996 atm
Relative humidity:77.5 %
METAR:LFQI 291030Z AUTO 22009KT 18/14 Q1009

Snelkoppelingen

Actuele weersinformatie van de hele wereld. Voeg locaties toe met het plus (+) symbool. Deze snelkoppelingen kunnen worden toegevoegd aan Google.

Lid van de Technetium groep

website free tracking
StatCounter NetStat W3C Validator

07-10-2022 08:18:05
astro.technetium.be money.technetium.be phote.technetium.be tafeltennistafel.technetium.be www.ligfiets.net